createdAt,value
2017-05-05T00:00:35.893Z,1002.1
2017-05-05T00:01:35.933Z,1002.11
2017-05-05T00:02:35.967Z,1002.08
2017-05-05T00:03:36.017Z,1002.05
2017-05-05T00:04:36.053Z,1002.05
2017-05-05T00:05:36.090Z,1002.07
2017-05-05T00:06:36.114Z,1002.04
2017-05-05T00:07:36.151Z,1002.03
2017-05-05T00:08:36.182Z,1002.05
2017-05-05T00:09:36.220Z,1002.01
2017-05-05T00:10:36.262Z,1002.01
2017-05-05T00:11:36.294Z,1002
2017-05-05T00:12:36.341Z,1001.98
2017-05-05T00:13:36.366Z,1001.94
2017-05-05T00:14:36.411Z,1001.94
2017-05-05T00:15:36.438Z,1001.94
2017-05-05T00:16:36.483Z,1001.95
2017-05-05T00:17:36.511Z,1001.94
2017-05-05T00:18:36.545Z,1001.98
2017-05-05T00:19:36.582Z,1001.94
2017-05-05T00:20:36.619Z,1001.97
2017-05-05T00:21:36.658Z,1001.93
2017-05-05T00:22:36.691Z,1001.95
2017-05-05T00:23:36.735Z,1001.97
2017-05-05T00:24:36.763Z,1002
2017-05-05T00:25:36.803Z,1002.01
2017-05-05T00:26:36.836Z,1002.01
2017-05-05T00:27:36.873Z,1001.97
2017-05-05T00:28:36.906Z,1001.96
2017-05-05T00:29:36.952Z,1001.97
2017-05-05T00:30:36.980Z,1001.95
2017-05-05T00:31:37.018Z,1001.93
2017-05-05T00:32:37.050Z,1001.91
2017-05-05T00:33:37.100Z,1001.92
2017-05-05T00:34:37.128Z,1001.9
2017-05-05T00:35:37.165Z,1001.92
2017-05-05T00:36:37.197Z,1001.93
2017-05-05T00:37:37.233Z,1001.94
2017-05-05T00:38:37.267Z,1001.94
2017-05-05T00:39:37.306Z,1001.94
2017-05-05T00:40:37.344Z,1001.92
2017-05-05T00:41:37.377Z,1001.92
2017-05-05T00:42:37.422Z,1001.93
2017-05-05T00:43:37.467Z,1001.93
2017-05-05T00:44:37.486Z,1001.95
2017-05-05T00:45:37.518Z,1001.95
2017-05-05T00:46:37.569Z,1001.96
2017-05-05T00:47:37.590Z,1001.9
2017-05-05T00:48:37.638Z,1001.93
2017-05-05T00:49:37.667Z,1001.95
2017-05-05T00:50:37.702Z,1001.93
2017-05-05T00:51:37.738Z,1001.99
2017-05-05T00:52:37.786Z,1001.98
2017-05-05T00:53:37.811Z,1001.96
2017-05-05T00:54:37.848Z,1001.97
2017-05-05T00:55:37.883Z,1001.95
2017-05-05T00:56:37.916Z,1001.95
2017-05-05T00:57:37.956Z,1001.96
2017-05-05T00:58:37.994Z,1001.93
2017-05-05T00:59:38.028Z,1001.94
2017-05-05T01:00:38.063Z,1001.93
2017-05-05T01:01:38.097Z,1001.94
2017-05-05T01:02:38.147Z,1001.91
2017-05-05T01:03:38.169Z,1001.92
2017-05-05T01:04:38.207Z,1001.96
2017-05-05T01:05:38.243Z,1001.93
2017-05-05T01:06:38.279Z,1001.97
2017-05-05T01:07:38.315Z,1001.96
2017-05-05T01:08:38.351Z,1001.98
2017-05-05T01:09:38.385Z,1001.94
2017-05-05T01:10:38.421Z,1001.94
2017-05-05T01:11:38.464Z,1001.92
2017-05-05T01:12:38.493Z,1001.96
2017-05-05T01:13:38.528Z,1001.96
2017-05-05T01:14:38.568Z,1001.97
2017-05-05T01:15:38.605Z,1001.97
2017-05-05T01:16:38.643Z,1002.01
2017-05-05T01:17:38.684Z,1001.97
2017-05-05T01:18:38.712Z,1002
2017-05-05T01:19:38.749Z,1001.99
2017-05-05T01:20:38.788Z,1002.01
2017-05-05T01:21:38.818Z,1002.03
2017-05-05T01:22:38.857Z,1002.05
2017-05-05T01:23:38.889Z,1002.05
2017-05-05T01:24:38.937Z,1002.03
2017-05-05T01:25:38.964Z,1002.05
2017-05-05T01:26:39.004Z,1002.09
2017-05-05T01:27:39.037Z,1002.08
2017-05-05T01:28:39.076Z,1002.08
2017-05-05T01:29:39.109Z,1002.07
2017-05-05T01:30:39.144Z,1002.06
2017-05-05T01:31:39.180Z,1002.05
2017-05-05T01:32:39.220Z,1002.04
2017-05-05T01:33:39.251Z,1002.03
2017-05-05T01:34:39.289Z,1002.02
2017-05-05T01:35:39.336Z,1002.05
2017-05-05T01:36:39.361Z,1002.02
2017-05-05T01:37:39.397Z,1002.06
2017-05-05T01:38:39.431Z,1002.07
2017-05-05T01:39:39.468Z,1002.11
2017-05-05T01:40:39.504Z,1002.07
2017-05-05T01:41:39.539Z,1002.1
2017-05-05T01:42:39.577Z,1002.1
2017-05-05T01:43:39.612Z,1002.1
2017-05-05T01:44:39.645Z,1002.13
2017-05-05T01:45:39.693Z,1002.14
2017-05-05T01:46:39.717Z,1002.14
2017-05-05T01:47:39.754Z,1002.14
2017-05-05T01:48:39.793Z,1002.13
2017-05-05T01:49:39.830Z,1002.13
2017-05-05T01:50:39.863Z,1002.15
2017-05-05T01:51:39.900Z,1002.1
2017-05-05T01:52:39.947Z,1002.13
2017-05-05T01:53:39.973Z,1002.14
2017-05-05T01:54:40.006Z,1002.11
2017-05-05T01:55:40.055Z,1002.15
2017-05-05T01:56:40.083Z,1002.18
2017-05-05T01:57:40.116Z,1002.18
2017-05-05T01:58:40.155Z,1002.13
2017-05-05T01:59:40.185Z,1002.15
2017-05-05T02:00:40.236Z,1002.14
2017-05-05T02:01:40.257Z,1002.11
2017-05-05T02:02:40.294Z,1002.11
2017-05-05T02:03:40.338Z,1002.13
2017-05-05T02:04:40.366Z,1002.1
2017-05-05T02:05:40.401Z,1002.1
2017-05-05T02:06:40.443Z,1002.09
2017-05-05T02:07:40.473Z,1002.1
2017-05-05T02:08:40.509Z,1002.03
2017-05-05T02:09:40.546Z,1002.09
2017-05-05T02:10:40.585Z,1002.02
2017-05-05T02:11:40.617Z,1002.03
2017-05-05T02:12:40.654Z,1002.04
2017-05-05T02:13:40.692Z,1001.99
2017-05-05T02:14:40.724Z,1001.96
2017-05-05T02:15:40.766Z,1001.99
2017-05-05T02:16:40.800Z,1001.97
2017-05-05T02:17:40.833Z,1001.98
2017-05-05T02:18:40.873Z,1002.01
2017-05-05T02:19:40.904Z,1001.98
2017-05-05T02:20:40.955Z,1002.01
2017-05-05T02:21:40.977Z,1001.96
2017-05-05T02:22:41.018Z,1002
2017-05-05T02:23:41.048Z,1002.04
2017-05-05T02:24:41.084Z,1002.03
2017-05-05T02:25:41.121Z,1002.03
2017-05-05T02:26:41.162Z,1002.02
2017-05-05T02:27:41.200Z,1002.05
2017-05-05T02:28:41.229Z,1002.03
2017-05-05T02:29:41.276Z,1002.03
2017-05-05T02:30:41.299Z,1002.01
2017-05-05T02:31:41.342Z,1002.04
2017-05-05T02:32:41.374Z,1002.02
2017-05-05T02:33:41.409Z,1002.03
2017-05-05T02:34:41.444Z,1002.02
2017-05-05T02:35:41.479Z,1002.05
2017-05-05T02:36:41.521Z,1002.12
2017-05-05T02:37:41.551Z,1002.09
2017-05-05T02:38:41.588Z,1002.12
2017-05-05T02:39:41.630Z,1002.13
2017-05-05T02:40:41.661Z,1002.13
2017-05-05T02:41:41.695Z,1002.13
2017-05-05T02:42:41.734Z,1002.13
2017-05-05T02:43:41.792Z,1002.16
2017-05-05T02:44:41.803Z,1002.18
2017-05-05T02:45:41.853Z,1002.17
2017-05-05T02:46:41.874Z,1002.19
2017-05-05T02:47:41.912Z,1002.18
2017-05-05T02:48:41.947Z,1002.19
2017-05-05T02:49:41.993Z,1002.21
2017-05-05T02:50:42.023Z,1002.27
2017-05-05T02:51:42.061Z,1002.24
2017-05-05T02:52:42.094Z,1002.27
2017-05-05T02:53:42.127Z,1002.28
2017-05-05T02:54:42.178Z,1002.28
2017-05-05T02:55:42.212Z,1002.28
2017-05-05T02:56:42.246Z,1002.28
2017-05-05T02:57:42.272Z,1002.26
2017-05-05T02:58:42.322Z,1002.32
2017-05-05T02:59:42.342Z,1002.27
2017-05-05T03:00:42.377Z,1002.26
2017-05-05T03:01:42.414Z,1002.28
2017-05-05T03:02:42.451Z,1002.3
2017-05-05T03:03:42.493Z,1002.31
2017-05-05T03:04:42.536Z,1002.34
2017-05-05T03:05:42.573Z,1002.37
2017-05-05T03:06:42.594Z,1002.36
2017-05-05T03:07:42.630Z,1002.35
2017-05-05T03:08:42.666Z,1002.35
2017-05-05T03:09:42.714Z,1002.39
2017-05-05T03:10:42.738Z,1002.36
2017-05-05T03:11:42.781Z,1002.35
2017-05-05T03:12:42.822Z,1002.34
2017-05-05T03:13:42.851Z,1002.34
2017-05-05T03:14:42.887Z,1002.39
2017-05-05T03:15:42.918Z,1002.38
2017-05-05T03:16:42.954Z,1002.36
2017-05-05T03:17:42.989Z,1002.37
2017-05-05T03:18:43.031Z,1002.38
2017-05-05T03:19:43.067Z,1002.41
2017-05-05T03:20:43.098Z,1002.41
2017-05-05T03:21:43.138Z,1002.42
2017-05-05T03:22:43.170Z,1002.41
2017-05-05T03:23:43.213Z,1002.43
2017-05-05T03:24:43.249Z,1002.43
2017-05-05T03:25:43.277Z,1002.44
2017-05-05T03:26:43.317Z,1002.44
2017-05-05T03:27:43.348Z,1002.45
2017-05-05T03:28:43.384Z,1002.47
2017-05-05T03:29:43.435Z,1002.48
2017-05-05T03:30:43.457Z,1002.45
2017-05-05T03:31:43.494Z,1002.45
2017-05-05T03:32:43.529Z,1002.41
2017-05-05T03:33:43.574Z,1002.47
2017-05-05T03:34:43.601Z,1002.46
2017-05-05T03:35:43.638Z,1002.51
2017-05-05T03:36:43.684Z,1002.46
2017-05-05T03:37:43.713Z,1002.5
2017-05-05T03:38:43.746Z,1002.49
2017-05-05T03:39:43.785Z,1002.5
2017-05-05T03:40:43.818Z,1002.52
2017-05-05T03:41:43.869Z,1002.51
2017-05-05T03:42:43.891Z,1002.48
2017-05-05T03:43:43.929Z,1002.51
2017-05-05T03:44:43.963Z,1002.5
2017-05-05T03:45:44.004Z,1002.5
2017-05-05T03:46:44.034Z,1002.52
2017-05-05T03:47:44.071Z,1002.5
2017-05-05T03:48:44.106Z,1002.55
2017-05-05T03:49:44.142Z,1002.55
2017-05-05T03:50:44.180Z,1002.55
2017-05-05T03:51:44.218Z,1002.56
2017-05-05T03:52:44.252Z,1002.57
2017-05-05T03:53:44.289Z,1002.58
2017-05-05T03:54:44.323Z,1002.59
2017-05-05T03:55:44.362Z,1002.59
2017-05-05T03:56:44.395Z,1002.62
2017-05-05T03:57:44.433Z,1002.61
2017-05-05T03:58:44.470Z,1002.64
2017-05-05T03:59:44.509Z,1002.58
2017-05-05T04:00:44.539Z,1002.59
2017-05-05T04:01:44.580Z,1002.56
2017-05-05T04:02:44.616Z,1002.58
2017-05-05T04:03:44.646Z,1002.56
2017-05-05T04:04:44.695Z,1002.61
2017-05-05T04:05:44.722Z,1002.61
2017-05-05T04:06:44.756Z,1002.62
2017-05-05T04:07:44.815Z,1002.59
2017-05-05T04:08:44.827Z,1002.6
2017-05-05T04:09:44.863Z,1002.61
2017-05-05T04:10:44.899Z,1002.62
2017-05-05T04:11:44.935Z,1002.68
2017-05-05T04:12:44.971Z,1002.67
2017-05-05T04:13:45.019Z,1002.69
2017-05-05T04:14:45.043Z,1002.67
2017-05-05T04:15:45.079Z,1002.66
2017-05-05T04:16:45.115Z,1002.7
2017-05-05T04:17:45.163Z,1002.64
2017-05-05T04:18:45.188Z,1002.68
2017-05-05T04:19:45.249Z,1002.68
2017-05-05T04:20:45.273Z,1002.69
2017-05-05T04:21:45.308Z,1002.71
2017-05-05T04:22:45.334Z,1002.73
2017-05-05T04:23:45.379Z,1002.74
2017-05-05T04:24:45.404Z,1002.75
2017-05-05T04:25:45.439Z,1002.8
2017-05-05T04:26:45.492Z,1002.77
2017-05-05T04:27:45.513Z,1002.77
2017-05-05T04:28:45.551Z,1002.77
2017-05-05T04:29:45.592Z,1002.8
2017-05-05T04:30:45.628Z,1002.82
2017-05-05T04:31:45.663Z,1002.76
2017-05-05T04:32:45.699Z,1002.79
2017-05-05T04:33:45.743Z,1002.82
2017-05-05T04:34:45.765Z,1002.82
2017-05-05T04:35:45.801Z,1002.79
2017-05-05T04:36:45.851Z,1002.84
2017-05-05T04:37:45.885Z,1002.83
2017-05-05T04:38:45.920Z,1002.84
2017-05-05T04:39:46.853Z,1002.88
2017-05-05T04:40:46.579Z,1002.9
2017-05-05T04:41:46.021Z,1002.93
2017-05-05T04:42:46.053Z,1002.93
2017-05-05T04:43:46.090Z,1002.94
2017-05-05T04:44:46.127Z,1002.97
2017-05-05T04:45:46.168Z,1002.97
2017-05-05T04:46:46.212Z,1002.98
2017-05-05T04:47:46.234Z,1002.99
2017-05-05T04:48:46.279Z,1002.97
2017-05-05T04:49:46.321Z,1002.95
2017-05-05T04:50:46.343Z,1002.96
2017-05-05T04:51:46.382Z,1002.93
2017-05-05T04:52:46.415Z,1002.91
2017-05-05T04:53:46.462Z,1002.91
2017-05-05T04:54:46.490Z,1002.96
2017-05-05T04:55:46.527Z,1002.9
2017-05-05T04:56:46.559Z,1002.95
2017-05-05T04:57:46.596Z,1002.95
2017-05-05T04:58:46.634Z,1002.89
2017-05-05T04:59:46.675Z,1002.87
2017-05-05T05:00:46.716Z,1002.84
2017-05-05T05:01:46.752Z,1002.88
2017-05-05T05:02:46.780Z,1002.89
2017-05-05T05:03:46.816Z,1002.89
2017-05-05T05:04:46.860Z,1002.91
2017-05-05T05:05:46.888Z,1002.9
2017-05-05T05:06:46.921Z,1002.93
2017-05-05T05:07:46.971Z,1002.91
2017-05-05T05:08:47.005Z,1002.95
2017-05-05T05:09:47.031Z,1002.9
2017-05-05T05:10:47.078Z,1002.92
2017-05-05T05:11:47.110Z,1002.92
2017-05-05T05:12:47.140Z,1002.88
2017-05-05T05:13:47.191Z,1002.91
2017-05-05T05:14:47.226Z,1002.91
2017-05-05T05:15:47.248Z,1002.94
2017-05-05T05:16:47.285Z,1002.94
2017-05-05T05:17:47.321Z,1002.94
2017-05-05T05:18:47.359Z,1003
2017-05-05T05:19:47.395Z,1002.97
2017-05-05T05:20:47.431Z,1002.94
2017-05-05T05:21:47.471Z,1002.95
2017-05-05T05:22:47.503Z,1002.94
2017-05-05T05:23:47.540Z,1002.94
2017-05-05T05:24:47.578Z,1002.94
2017-05-05T05:25:47.613Z,1002.93
2017-05-05T05:26:47.650Z,1002.98
2017-05-05T05:27:47.686Z,1002.99
2017-05-05T05:28:47.737Z,1003.06
2017-05-05T05:29:47.758Z,1003.02
2017-05-05T05:30:47.795Z,1003.06
2017-05-05T05:31:47.847Z,1003.05
2017-05-05T05:32:47.873Z,1003.09
2017-05-05T05:33:47.919Z,1003.05
2017-05-05T05:34:47.942Z,1003.06
2017-05-05T05:35:47.979Z,1003.07
2017-05-05T05:36:48.015Z,1003.1
2017-05-05T05:37:48.052Z,1003.09
2017-05-05T05:38:48.089Z,1003.09
2017-05-05T05:39:48.129Z,1003.1
2017-05-05T05:40:48.161Z,1003.1
2017-05-05T05:41:48.210Z,1003.11
2017-05-05T05:42:48.235Z,1003.12
2017-05-05T05:43:48.282Z,1003.12
2017-05-05T05:44:48.308Z,1003.1
2017-05-05T05:45:48.345Z,1003.08
2017-05-05T05:46:48.383Z,1003.1
2017-05-05T05:47:48.417Z,1003.08
2017-05-05T05:48:48.455Z,1003.13
2017-05-05T05:49:48.491Z,1003.11
2017-05-05T05:50:48.528Z,1003.11
2017-05-05T05:51:48.564Z,1003.1
2017-05-05T05:52:48.601Z,1003.11
2017-05-05T05:53:48.651Z,1003.12
2017-05-05T05:54:48.674Z,1003.13
2017-05-05T05:55:48.710Z,1003.14
2017-05-05T05:56:48.747Z,1003.11
2017-05-05T05:57:48.786Z,1003.1
2017-05-05T05:58:48.821Z,1003.08
2017-05-05T05:59:48.858Z,1003.09
2017-05-05T06:00:48.898Z,1003.07
2017-05-05T06:01:48.936Z,1003.07
2017-05-05T06:02:49.001Z,1003.06
2017-05-05T06:03:49.004Z,1003.06
2017-05-05T06:04:49.041Z,1003.09
2017-05-05T06:05:49.080Z,1003.07
2017-05-05T06:06:49.134Z,1003.1
2017-05-05T06:07:49.166Z,1003.07
2017-05-05T06:08:49.192Z,1003.09
2017-05-05T06:09:49.231Z,1003.08
2017-05-05T06:10:49.261Z,1003.09
2017-05-05T06:11:49.299Z,1003.16
2017-05-05T06:12:49.337Z,1003.18
2017-05-05T06:13:49.419Z,1003.13
2017-05-05T06:14:49.410Z,1003.15
2017-05-05T06:15:49.449Z,1003.12
2017-05-05T06:16:49.483Z,1003.13
2017-05-05T06:17:49.520Z,1003.11
2017-05-05T06:18:49.556Z,1003.11
2017-05-05T06:19:49.594Z,1003.14
2017-05-05T06:20:49.630Z,1003.14
2017-05-05T06:21:49.675Z,1003.18
2017-05-05T06:22:49.704Z,1003.2
2017-05-05T06:23:49.746Z,1003.18
2017-05-05T06:24:49.779Z,1003.18
2017-05-05T06:25:49.823Z,1003.19
2017-05-05T06:26:49.892Z,1003.22
2017-05-05T06:27:49.890Z,1003.21
2017-05-05T06:28:49.928Z,1003.22
2017-05-05T06:29:49.970Z,1003.21
2017-05-05T06:30:50.003Z,1003.21
2017-05-05T06:31:50.041Z,1003.22
2017-05-05T06:32:50.077Z,1003.23
2017-05-05T06:33:50.121Z,1003.18
2017-05-05T06:34:50.152Z,1003.22
2017-05-05T06:35:50.188Z,1003.2
2017-05-05T06:36:50.227Z,1003.24
2017-05-05T06:37:50.264Z,1003.23
2017-05-05T06:38:50.300Z,1003.24
2017-05-05T06:39:50.341Z,1003.23
2017-05-05T06:40:50.390Z,1003.21
2017-05-05T06:41:50.427Z,1003.21
2017-05-05T06:42:50.449Z,1003.21
2017-05-05T06:43:50.501Z,1003.26
2017-05-05T06:44:50.528Z,1003.27
2017-05-05T06:45:50.568Z,1003.29
2017-05-05T06:46:50.604Z,1003.36
2017-05-05T06:47:50.638Z,1003.38
2017-05-05T06:48:50.681Z,1003.42
2017-05-05T06:49:50.715Z,1003.46
2017-05-05T06:50:50.749Z,1003.46
2017-05-05T06:51:50.786Z,1003.45
2017-05-05T06:52:50.824Z,1003.48
2017-05-05T06:53:50.860Z,1003.48
2017-05-05T06:54:50.898Z,1003.48
2017-05-05T06:55:50.939Z,1003.45
2017-05-05T06:56:50.974Z,1003.45
2017-05-05T06:57:51.017Z,1003.47
2017-05-05T06:58:51.053Z,1003.48
2017-05-05T06:59:51.090Z,1003.48
2017-05-05T07:00:51.120Z,1003.49
2017-05-05T07:01:51.170Z,1003.52
2017-05-05T07:02:51.197Z,1003.5
2017-05-05T07:03:51.240Z,1003.54
2017-05-05T07:04:51.273Z,1003.57
2017-05-05T07:05:51.308Z,1003.54
2017-05-05T07:06:51.346Z,1003.52
2017-05-05T07:07:51.382Z,1003.53
2017-05-05T07:08:51.420Z,1003.55
2017-05-05T07:09:51.456Z,1003.54
2017-05-05T07:10:51.510Z,1003.57
2017-05-05T07:11:51.534Z,1003.56
2017-05-05T07:12:51.568Z,1003.58
2017-05-05T07:13:51.623Z,1003.57
2017-05-05T07:14:51.658Z,1003.58
2017-05-05T07:15:51.694Z,1003.57
2017-05-05T07:16:51.717Z,1003.54
2017-05-05T07:17:51.754Z,1003.51
2017-05-05T07:18:51.803Z,1003.49
2017-05-05T07:19:51.830Z,1003.52
2017-05-05T07:20:51.866Z,1003.51
2017-05-05T07:21:51.911Z,1003.48
2017-05-05T07:22:51.952Z,1003.47
2017-05-05T07:23:51.980Z,1003.49
2017-05-05T07:24:52.031Z,1003.5
2017-05-05T07:25:52.054Z,1003.52
2017-05-05T07:26:52.092Z,1003.54
2017-05-05T07:27:52.129Z,1003.51
2017-05-05T07:28:52.168Z,1003.47
2017-05-05T07:29:52.204Z,1003.49
2017-05-05T07:30:52.242Z,1003.48
2017-05-05T07:31:52.280Z,1003.48
2017-05-05T07:32:52.319Z,1003.48
2017-05-05T07:33:52.358Z,1003.49
2017-05-05T07:34:52.394Z,1003.45
2017-05-05T07:35:52.433Z,1003.44
2017-05-05T07:36:52.472Z,1003.49
2017-05-05T07:37:52.506Z,1003.47
2017-05-05T07:38:52.544Z,1003.5
2017-05-05T07:39:52.583Z,1003.52
2017-05-05T07:40:52.631Z,1003.55
2017-05-05T07:41:52.658Z,1003.53
2017-05-05T07:42:52.708Z,1003.53
2017-05-05T07:43:52.733Z,1003.56
2017-05-05T07:44:52.772Z,1003.55
2017-05-05T07:45:52.816Z,1003.54
2017-05-05T07:46:52.854Z,1003.52
2017-05-05T07:47:52.888Z,1003.55
2017-05-05T07:48:52.926Z,1003.52
2017-05-05T07:49:52.962Z,1003.52
2017-05-05T07:50:53.006Z,1003.54
2017-05-05T07:51:53.053Z,1003.55
2017-05-05T07:52:53.078Z,1003.54
2017-05-05T07:53:53.116Z,1003.49
2017-05-05T07:54:53.162Z,1003.48
2017-05-05T07:55:53.192Z,1003.48
2017-05-05T07:56:53.231Z,1003.47
2017-05-05T07:57:53.270Z,1003.48
2017-05-05T07:58:53.310Z,1003.45
2017-05-05T07:59:53.358Z,1003.49
2017-05-05T08:00:53.526Z,1003.53
2017-05-05T08:01:53.440Z,1003.54
2017-05-05T08:02:53.467Z,1003.55
2017-05-05T08:03:53.500Z,1003.57
2017-05-05T08:04:53.551Z,1003.59
2017-05-05T08:05:53.592Z,1003.58
2017-05-05T08:06:53.631Z,1003.59
2017-05-05T08:07:53.689Z,1003.58
2017-05-05T08:08:53.695Z,1003.6
2017-05-05T08:09:53.735Z,1003.55
2017-05-05T08:10:53.769Z,1003.59
2017-05-05T08:11:53.812Z,1003.62
2017-05-05T08:12:53.859Z,1003.57
2017-05-05T08:13:53.892Z,1003.59
2017-05-05T08:14:53.930Z,1003.58
2017-05-05T08:15:53.966Z,1003.57
2017-05-05T08:16:54.007Z,1003.52
2017-05-05T08:17:54.045Z,1003.54
2017-05-05T08:18:54.078Z,1003.55
2017-05-05T08:19:54.117Z,1003.58
2017-05-05T08:20:54.155Z,1003.55
2017-05-05T08:21:54.194Z,1003.58
2017-05-05T08:22:54.232Z,1003.54
2017-05-05T08:23:54.272Z,1003.57
2017-05-05T08:24:54.310Z,1003.57
2017-05-05T08:25:54.349Z,1003.56
2017-05-05T08:26:54.389Z,1003.57
2017-05-05T08:27:54.433Z,1003.59
2017-05-05T08:28:54.470Z,1003.61
2017-05-05T08:29:54.507Z,1003.57
2017-05-05T08:30:54.542Z,1003.55
2017-05-05T08:31:54.610Z,1003.58
2017-05-05T08:32:54.657Z,1003.55
2017-05-05T08:33:54.672Z,1003.61
2017-05-05T08:34:54.698Z,1003.6
2017-05-05T08:35:54.740Z,1003.62
2017-05-05T08:36:54.775Z,1003.6
2017-05-05T08:37:54.815Z,1003.59
2017-05-05T08:38:54.855Z,1003.65
2017-05-05T08:39:54.893Z,1003.65
2017-05-05T08:40:54.937Z,1003.67
2017-05-05T08:41:54.983Z,1003.72
2017-05-05T08:42:55.010Z,1003.7
2017-05-05T08:43:55.049Z,1003.74
2017-05-05T08:44:55.105Z,1003.72
2017-05-05T08:45:55.129Z,1003.74
2017-05-05T08:46:55.179Z,1003.73
2017-05-05T08:47:55.213Z,1003.75
2017-05-05T08:48:55.249Z,1003.7
2017-05-05T08:49:55.287Z,1003.74
2017-05-05T08:50:55.330Z,1003.75
2017-05-05T08:51:55.363Z,1003.73
2017-05-05T08:52:55.416Z,1003.73
2017-05-05T08:53:55.441Z,1003.75
2017-05-05T08:54:55.481Z,1003.77
2017-05-05T08:55:55.524Z,1003.77
2017-05-05T08:56:55.562Z,1003.77
2017-05-05T08:57:55.598Z,1003.78
2017-05-05T08:58:55.637Z,1003.77
2017-05-05T08:59:55.677Z,1003.76
2017-05-05T09:00:55.715Z,1003.77
2017-05-05T09:01:55.755Z,1003.75
2017-05-05T09:02:55.794Z,1003.74
2017-05-05T09:03:55.845Z,1003.74
2017-05-05T09:04:55.974Z,1003.75
2017-05-05T09:05:55.911Z,1003.74
2017-05-05T09:06:56.158Z,1003.75
2017-05-05T09:07:55.990Z,1003.76
2017-05-05T09:08:56.027Z,1003.75
2017-05-05T09:09:56.067Z,1003.75
2017-05-05T09:10:56.106Z,1003.71
2017-05-05T09:11:56.145Z,1003.73
2017-05-05T09:12:56.183Z,1003.73
2017-05-05T09:13:56.227Z,1003.71
2017-05-05T09:14:56.275Z,1003.69
2017-05-05T09:15:56.315Z,1003.71
2017-05-05T09:16:56.347Z,1003.71
2017-05-05T09:17:56.378Z,1003.71
2017-05-05T09:18:56.418Z,1003.72
2017-05-05T09:19:56.462Z,1003.67
2017-05-05T09:20:56.509Z,1003.69
2017-05-05T09:21:56.536Z,1003.68
2017-05-05T09:22:56.574Z,1003.69
2017-05-05T09:23:56.612Z,1003.71
2017-05-05T09:24:56.658Z,1003.73
2017-05-05T09:25:56.691Z,1003.74
2017-05-05T09:26:56.739Z,1003.79
2017-05-05T09:27:56.787Z,1003.78
2017-05-05T09:28:56.809Z,1003.78
2017-05-05T09:29:56.860Z,1003.76
2017-05-05T09:30:56.887Z,1003.78
2017-05-05T09:31:56.927Z,1003.77
2017-05-05T09:32:56.969Z,1003.76
2017-05-05T09:33:57.007Z,1003.84
2017-05-05T09:34:57.045Z,1003.86
2017-05-05T09:35:57.084Z,1003.85
2017-05-05T09:36:57.123Z,1003.83
2017-05-05T09:37:57.163Z,1003.87
2017-05-05T09:38:57.217Z,1003.86
2017-05-05T09:39:57.244Z,1003.9
2017-05-05T09:40:57.280Z,1003.88
2017-05-05T09:41:57.319Z,1003.85
2017-05-05T09:42:57.358Z,1003.92
2017-05-05T09:43:57.397Z,1003.94
2017-05-05T09:44:57.441Z,1003.97
2017-05-05T09:45:57.475Z,1003.95
2017-05-05T09:46:57.522Z,1004.02
2017-05-05T09:47:57.555Z,1004.01
2017-05-05T09:48:57.601Z,1004.02
2017-05-05T09:49:57.633Z,1004.08
2017-05-05T09:50:57.672Z,1004.08
2017-05-05T09:51:57.716Z,1004.08
2017-05-05T09:52:57.751Z,1004.11
2017-05-05T09:53:57.793Z,1004.12
2017-05-05T09:54:57.830Z,1004.07
2017-05-05T09:55:57.872Z,1004.09
2017-05-05T09:56:57.909Z,1004.11
2017-05-05T09:57:57.959Z,1004.11
2017-05-05T09:58:58.000Z,1004.13
2017-05-05T09:59:58.026Z,1004.1
2017-05-05T10:00:58.065Z,1004.11
2017-05-05T10:01:58.119Z,1004.12
2017-05-05T10:02:58.144Z,1004.14
2017-05-05T10:03:58.189Z,1004.13
2017-05-05T10:04:58.222Z,1004.14
2017-05-05T10:05:58.265Z,1004.18
2017-05-05T10:06:58.299Z,1004.18
2017-05-05T10:07:58.350Z,1004.18
2017-05-05T10:08:58.378Z,1004.17
2017-05-05T10:09:58.420Z,1004.19
2017-05-05T10:10:58.455Z,1004.19
2017-05-05T10:11:58.501Z,1004.14
2017-05-05T10:12:58.548Z,1004.14
2017-05-05T10:13:58.573Z,1004.15
2017-05-05T10:14:58.610Z,1004.17
2017-05-05T10:15:58.649Z,1004.18
2017-05-05T10:16:58.695Z,1004.19
2017-05-05T10:17:58.728Z,1004.13
2017-05-05T10:18:58.778Z,1004.19
2017-05-05T10:19:58.806Z,1004.18
2017-05-05T10:20:58.844Z,1004.2
2017-05-05T10:21:58.887Z,1004.16
2017-05-05T10:22:58.921Z,1004.17
2017-05-05T10:23:58.974Z,1004.2
2017-05-05T10:24:59.004Z,1004.21
2017-05-05T10:25:59.037Z,1004.16
2017-05-05T10:26:59.092Z,1004.19
2017-05-05T10:27:59.116Z,1004.15
2017-05-05T10:28:59.154Z,1004.19
2017-05-05T10:29:59.196Z,1004.19
2017-05-05T10:30:59.231Z,1004.2
2017-05-05T10:31:59.271Z,1004.24
2017-05-05T10:32:59.308Z,1004.22
2017-05-05T10:33:59.522Z,1004.22
2017-05-05T10:34:59.386Z,1004.2
2017-05-05T10:35:59.426Z,1004.24
2017-05-05T10:36:59.464Z,1004.18
2017-05-05T10:37:59.508Z,1004.22
2017-05-05T10:38:59.541Z,1004.22
2017-05-05T10:39:59.583Z,1004.21
2017-05-05T10:40:59.616Z,1004.22
2017-05-05T10:41:59.658Z,1004.24
2017-05-05T10:42:59.707Z,1004.24
2017-05-05T10:43:59.733Z,1004.23
2017-05-05T10:44:59.772Z,1004.24
2017-05-05T10:45:59.811Z,1004.25
2017-05-05T10:46:59.849Z,1004.21
2017-05-05T10:47:59.892Z,1004.22
2017-05-05T10:48:59.929Z,1004.24
2017-05-05T10:49:59.966Z,1004.23
2017-05-05T10:51:00.003Z,1004.24
2017-05-05T10:52:00.059Z,1004.23
2017-05-05T10:53:00.095Z,1004.22
2017-05-05T10:54:00.127Z,1004.25
2017-05-05T10:55:00.157Z,1004.27
2017-05-05T10:56:00.200Z,1004.29
2017-05-05T10:57:00.234Z,1004.24
2017-05-05T10:58:00.279Z,1004.25
2017-05-05T10:59:00.310Z,1004.29
2017-05-05T11:00:00.362Z,1004.28
2017-05-05T11:01:00.387Z,1004.23
2017-05-05T11:02:00.426Z,1004.23
2017-05-05T11:03:00.467Z,1004.22
2017-05-05T11:04:00.515Z,1004.25
2017-05-05T11:05:00.542Z,1004.19
2017-05-05T11:06:00.586Z,1004.26
2017-05-05T11:07:00.618Z,1004.26
2017-05-05T11:08:00.659Z,1004.28
2017-05-05T11:09:00.697Z,1004.31
2017-05-05T11:10:00.734Z,1004.37
2017-05-05T11:11:00.773Z,1004.36
2017-05-05T11:12:00.827Z,1004.42
2017-05-05T11:13:00.862Z,1004.42
2017-05-05T11:14:00.889Z,1004.42
2017-05-05T11:15:00.933Z,1004.47
2017-05-05T11:16:00.968Z,1004.47
2017-05-05T11:17:01.007Z,1004.48
2017-05-05T11:18:01.051Z,1004.43
2017-05-05T11:19:01.084Z,1004.46
2017-05-05T11:20:01.123Z,1004.44
2017-05-05T11:21:01.162Z,1004.43
2017-05-05T11:22:01.208Z,1004.47
2017-05-05T11:23:01.244Z,1004.46
2017-05-05T11:24:01.279Z,1004.5
2017-05-05T11:25:01.318Z,1004.52
2017-05-05T11:26:01.388Z,1004.51
2017-05-05T11:27:01.395Z,1004.53
2017-05-05T11:28:01.436Z,1004.53
2017-05-05T11:29:01.473Z,1004.54
2017-05-05T11:30:01.513Z,1004.51
2017-05-05T11:31:01.552Z,1004.5
2017-05-05T11:32:01.590Z,1004.52
2017-05-05T11:33:01.629Z,1004.52
2017-05-05T11:34:01.668Z,1004.53
2017-05-05T11:35:01.718Z,1004.53
2017-05-05T11:36:01.751Z,1004.51
2017-05-05T11:37:01.797Z,1004.53
2017-05-05T11:38:01.825Z,1004.53
2017-05-05T11:39:01.862Z,1004.58
2017-05-05T11:40:01.901Z,1004.62
2017-05-05T11:41:01.955Z,1004.62
2017-05-05T11:42:01.978Z,1004.61
2017-05-05T11:43:02.021Z,1004.6
2017-05-05T11:44:02.057Z,1004.64
2017-05-05T11:45:02.110Z,1004.64
2017-05-05T11:46:02.133Z,1004.65
2017-05-05T11:47:02.172Z,1004.69
2017-05-05T11:48:02.217Z,1004.62
2017-05-05T11:49:02.261Z,1004.65
2017-05-05T11:50:02.287Z,1004.62
2017-05-05T11:51:02.332Z,1004.59
2017-05-05T11:52:02.365Z,1004.61
2017-05-05T11:53:02.411Z,1004.58
2017-05-05T11:54:02.442Z,1004.56
2017-05-05T11:55:02.482Z,1004.59
2017-05-05T11:56:02.519Z,1004.61
2017-05-05T11:57:02.557Z,1004.58
2017-05-05T11:58:02.607Z,1004.61
2017-05-05T11:59:02.634Z,1004.62
2017-05-05T12:00:02.674Z,1004.63
2017-05-05T12:01:02.710Z,1004.64
2017-05-05T12:02:02.753Z,1004.66
2017-05-05T12:03:02.788Z,1004.63
2017-05-05T12:04:02.826Z,1004.65
2017-05-05T12:05:02.865Z,1004.66
2017-05-05T12:06:02.909Z,1004.63
2017-05-05T12:07:02.956Z,1004.6
2017-05-05T12:08:02.994Z,1004.64